sensor_id;sensor_type;location;lat;lon;timestamp;P1;durP1;ratioP1;P2;durP2;ratioP2
30249;SDS011;17064;47.974;13.826;2023-04-06T03:02:33;10.10;;;4.88;;
30249;SDS011;17064;47.974;13.826;2023-04-06T03:07:34;12.10;;;4.78;;
30249;SDS011;17064;47.974;13.826;2023-04-06T03:12:35;9.00;;;5.07;;
30249;SDS011;17064;47.974;13.826;2023-04-06T03:17:35;7.88;;;5.30;;
30249;SDS011;17064;47.974;13.826;2023-04-06T03:22:36;9.02;;;4.82;;
30249;SDS011;17064;47.974;13.826;2023-04-06T03:27:37;11.70;;;5.05;;
30249;SDS011;17064;47.974;13.826;2023-04-06T03:32:37;15.32;;;5.72;;
30249;SDS011;17064;47.974;13.826;2023-04-06T03:37:38;11.25;;;5.20;;
30249;SDS011;17064;47.974;13.826;2023-04-06T03:42:39;8.27;;;4.80;;
30249;SDS011;17064;47.974;13.826;2023-04-06T03:47:40;9.88;;;5.07;;
30249;SDS011;17064;47.974;13.826;2023-04-06T03:52:40;8.25;;;4.75;;
30249;SDS011;17064;47.974;13.826;2023-04-06T03:57:41;10.02;;;4.40;;
30249;SDS011;17064;47.974;13.826;2023-04-06T04:02:42;8.40;;;4.68;;
30249;SDS011;17064;47.974;13.826;2023-04-06T04:07:42;8.68;;;5.00;;
30249;SDS011;17064;47.974;13.826;2023-04-06T04:12:43;7.65;;;4.80;;
30249;SDS011;17064;47.974;13.826;2023-04-06T04:17:44;8.27;;;4.63;;
30249;SDS011;17064;47.974;13.826;2023-04-06T04:22:49;18.83;;;6.35;;
30249;SDS011;17064;47.974;13.826;2023-04-06T04:27:49;12.40;;;5.95;;
30249;SDS011;17064;47.974;13.826;2023-04-06T04:32:50;14.32;;;6.35;;
30249;SDS011;17064;47.974;13.826;2023-04-06T04:37:51;13.70;;;5.45;;
30249;SDS011;17064;47.974;13.826;2023-04-06T04:42:52;8.18;;;5.13;;
30249;SDS011;17064;47.974;13.826;2023-04-06T04:47:52;9.90;;;5.57;;
30249;SDS011;17064;47.974;13.826;2023-04-06T04:52:53;12.25;;;5.22;;
30249;SDS011;17064;47.974;13.826;2023-04-06T04:57:54;14.57;;;5.53;;
30249;SDS011;17064;47.974;13.826;2023-04-06T05:02:54;10.10;;;5.13;;
30249;SDS011;17064;47.974;13.826;2023-04-06T05:07:56;17.13;;;6.38;;
30249;SDS011;17064;47.974;13.826;2023-04-06T05:12:57;11.88;;;6.15;;
30249;SDS011;17064;47.974;13.826;2023-04-06T05:17:57;12.55;;;5.43;;
30249;SDS011;17064;47.974;13.826;2023-04-06T05:22:58;14.60;;;6.32;;
30249;SDS011;17064;47.974;13.826;2023-04-06T05:27:59;13.27;;;6.15;;
30249;SDS011;17064;47.974;13.826;2023-04-06T05:33:00;11.15;;;5.32;;
30249;SDS011;17064;47.974;13.826;2023-04-06T05:38:01;12.40;;;6.70;;
30249;SDS011;17064;47.974;13.826;2023-04-06T05:43:01;13.43;;;6.80;;
30249;SDS011;17064;47.974;13.826;2023-04-06T05:48:03;10.07;;;6.47;;
30249;SDS011;17064;47.974;13.826;2023-04-06T05:53:04;17.95;;;7.03;;
30249;SDS011;17064;47.974;13.826;2023-04-06T05:58:05;18.45;;;8.65;;
30249;SDS011;17064;47.974;13.826;2023-04-06T06:03:06;19.83;;;8.93;;
30249;SDS011;17064;47.974;13.826;2023-04-06T06:08:08;17.08;;;8.02;;
30249;SDS011;17064;47.974;13.826;2023-04-06T06:13:10;17.17;;;7.35;;
30249;SDS011;17064;47.974;13.826;2023-04-06T06:18:10;12.65;;;6.40;;
30249;SDS011;17064;47.974;13.826;2023-04-06T06:23:11;11.75;;;6.78;;
30249;SDS011;17064;47.974;13.826;2023-04-06T06:28:12;13.27;;;7.10;;
30249;SDS011;17064;47.974;13.826;2023-04-06T06:33:13;11.35;;;5.85;;
30249;SDS011;17064;47.974;13.826;2023-04-06T06:38:14;15.10;;;6.30;;
30249;SDS011;17064;47.974;13.826;2023-04-06T06:43:14;18.48;;;6.25;;
30249;SDS011;17064;47.974;13.826;2023-04-06T06:48:15;16.92;;;6.65;;
30249;SDS011;17064;47.974;13.826;2023-04-06T06:53:16;21.95;;;9.50;;
30249;SDS011;17064;47.974;13.826;2023-04-06T06:58:20;18.98;;;7.05;;
30249;SDS011;17064;47.974;13.826;2023-04-06T07:03:20;20.58;;;8.13;;
30249;SDS011;17064;47.974;13.826;2023-04-06T07:08:22;18.02;;;7.72;;
30249;SDS011;17064;47.974;13.826;2023-04-06T07:13:23;17.70;;;7.43;;
30249;SDS011;17064;47.974;13.826;2023-04-06T07:18:26;18.45;;;7.18;;
30249;SDS011;17064;47.974;13.826;2023-04-06T07:23:27;15.93;;;7.15;;
30249;SDS011;17064;47.974;13.826;2023-04-06T07:28:28;17.35;;;6.60;;
30249;SDS011;17064;47.974;13.826;2023-04-06T07:33:28;15.75;;;7.38;;
30249;SDS011;17064;47.974;13.826;2023-04-06T07:38:30;12.48;;;6.20;;
30249;SDS011;17064;47.974;13.826;2023-04-06T07:43:30;15.95;;;7.47;;
30249;SDS011;17064;47.974;13.826;2023-04-06T07:48:31;15.45;;;7.45;;
30249;SDS011;17064;47.974;13.826;2023-04-06T07:53:32;23.58;;;9.10;;
30249;SDS011;17064;47.974;13.826;2023-04-06T07:58:33;16.58;;;7.43;;
30249;SDS011;17064;47.974;13.826;2023-04-06T08:03:34;17.58;;;7.05;;
30249;SDS011;17064;47.974;13.826;2023-04-06T08:08:35;12.93;;;6.60;;
30249;SDS011;17064;47.974;13.826;2023-04-06T08:13:35;18.80;;;6.60;;
30249;SDS011;17064;47.974;13.826;2023-04-06T08:18:36;10.10;;;5.15;;
30249;SDS011;17064;47.974;13.826;2023-04-06T08:23:37;13.63;;;5.65;;
30249;SDS011;17064;47.974;13.826;2023-04-06T08:28:38;12.98;;;6.10;;
30249;SDS011;17064;47.974;13.826;2023-04-06T08:33:38;17.35;;;6.00;;
30249;SDS011;17064;47.974;13.826;2023-04-06T08:38:40;9.85;;;5.32;;
30249;SDS011;17064;47.974;13.826;2023-04-06T08:48:47;11.90;;;5.95;;
30249;SDS011;17064;47.974;13.826;2023-04-06T08:53:50;9.40;;;5.28;;
30249;SDS011;17064;47.974;13.826;2023-04-06T08:58:51;9.95;;;5.20;;
30249;SDS011;17064;47.974;13.826;2023-04-06T09:03:57;8.95;;;5.07;;
30249;SDS011;17064;47.974;13.826;2023-04-06T09:09:00;7.28;;;4.05;;
30249;SDS011;17064;47.974;13.826;2023-04-06T09:14:00;9.10;;;4.28;;
30249;SDS011;17064;47.974;13.826;2023-04-06T09:19:04;11.23;;;4.70;;
30249;SDS011;17064;47.974;13.826;2023-04-06T09:24:06;8.02;;;4.10;;
30249;SDS011;17064;47.974;13.826;2023-04-06T09:29:07;6.88;;;3.90;;
30249;SDS011;17064;47.974;13.826;2023-04-06T09:34:08;7.65;;;4.90;;
30249;SDS011;17064;47.974;13.826;2023-04-06T09:39:09;5.57;;;3.90;;
30249;SDS011;17064;47.974;13.826;2023-04-06T09:44:10;11.20;;;4.18;;
30249;SDS011;17064;47.974;13.826;2023-04-06T09:49:12;6.97;;;3.75;;
30249;SDS011;17064;47.974;13.826;2023-04-06T09:54:20;5.63;;;3.75;;
30249;SDS011;17064;47.974;13.826;2023-04-06T10:00:22;7.35;;;3.58;;
30249;SDS011;17064;47.974;13.826;2023-04-06T10:10:37;5.75;;;3.30;;
30249;SDS011;17064;47.974;13.826;2023-04-06T10:15:38;10.32;;;3.53;;
30249;SDS011;17064;47.974;13.826;2023-04-06T10:20:43;25.73;;;14.68;;
30249;SDS011;17064;47.974;13.826;2023-04-06T10:25:54;7.45;;;3.15;;
30249;SDS011;17064;47.974;13.826;2023-04-06T10:31:05;5.97;;;3.50;;
30249;SDS011;17064;47.974;13.826;2023-04-06T10:36:12;5.63;;;3.00;;
30249;SDS011;17064;47.974;13.826;2023-04-06T10:41:16;5.20;;;3.22;;
30249;SDS011;17064;47.974;13.826;2023-04-06T10:46:17;6.43;;;3.75;;
30249;SDS011;17064;47.974;13.826;2023-04-06T10:51:28;9.73;;;3.30;;
30249;SDS011;17064;47.974;13.826;2023-04-06T10:56:30;6.53;;;2.88;;
30249;SDS011;17064;47.974;13.826;2023-04-06T11:01:36;8.10;;;3.40;;
30249;SDS011;17064;47.974;13.826;2023-04-06T11:06:37;5.72;;;3.40;;
30249;SDS011;17064;47.974;13.826;2023-04-06T11:11:38;6.47;;;3.58;;
30249;SDS011;17064;47.974;13.826;2023-04-06T11:16:39;6.22;;;3.40;;
30249;SDS011;17064;47.974;13.826;2023-04-06T11:21:41;6.75;;;3.22;;
30249;SDS011;17064;47.974;13.826;2023-04-06T11:26:44;10.52;;;3.50;;
30249;SDS011;17064;47.974;13.826;2023-04-06T11:31:49;7.22;;;3.60;;
30249;SDS011;17064;47.974;13.826;2023-04-06T11:36:55;4.90;;;3.35;;
30249;SDS011;17064;47.974;13.826;2023-04-06T11:41:57;10.48;;;4.28;;
30249;SDS011;17064;47.974;13.826;2023-04-06T11:47:00;9.48;;;3.75;;
30249;SDS011;17064;47.974;13.826;2023-04-06T11:52:02;8.65;;;3.42;;
30249;SDS011;17064;47.974;13.826;2023-04-06T11:57:13;7.30;;;3.53;;
30249;SDS011;17064;47.974;13.826;2023-04-06T12:02:14;5.68;;;3.40;;
30249;SDS011;17064;47.974;13.826;2023-04-06T12:07:15;6.70;;;3.75;;
30249;SDS011;17064;47.974;13.826;2023-04-06T12:12:16;8.15;;;3.50;;
30249;SDS011;17064;47.974;13.826;2023-04-06T12:17:18;6.15;;;3.60;;
30249;SDS011;17064;47.974;13.826;2023-04-06T12:22:19;5.45;;;3.35;;
30249;SDS011;17064;47.974;13.826;2023-04-06T12:27:19;6.30;;;4.03;;
30249;SDS011;17064;47.974;13.826;2023-04-06T12:32:20;5.60;;;3.20;;
30249;SDS011;17064;47.974;13.826;2023-04-06T12:37:21;4.75;;;3.47;;
30249;SDS011;17064;47.974;13.826;2023-04-06T12:42:21;5.18;;;2.92;;
30249;SDS011;17064;47.974;13.826;2023-04-06T12:47:22;5.72;;;3.15;;
30249;SDS011;17064;47.974;13.826;2023-04-06T12:52:23;6.32;;;3.55;;
30249;SDS011;17064;47.974;13.826;2023-04-06T12:57:24;12.52;;;3.60;;
30249;SDS011;17064;47.974;13.826;2023-04-06T13:02:25;5.95;;;3.35;;
30249;SDS011;17064;47.974;13.826;2023-04-06T13:07:27;4.70;;;2.75;;
30249;SDS011;17064;47.974;13.826;2023-04-06T13:12:27;12.65;;;3.45;;
30249;SDS011;17064;47.974;13.826;2023-04-06T13:17:28;5.22;;;2.90;;
30249;SDS011;17064;47.974;13.826;2023-04-06T13:22:29;5.85;;;3.30;;
30249;SDS011;17064;47.974;13.826;2023-04-06T13:27:29;5.50;;;3.13;;
30249;SDS011;17064;47.974;13.826;2023-04-06T13:32:33;5.78;;;4.82;;
30249;SDS011;17064;47.974;13.826;2023-04-06T13:37:34;5.82;;;2.92;;
30249;SDS011;17064;47.974;13.826;2023-04-06T13:42:35;7.90;;;3.20;;
30249;SDS011;17064;47.974;13.826;2023-04-06T13:47:36;6.10;;;3.38;;
30249;SDS011;17064;47.974;13.826;2023-04-06T13:52:37;5.32;;;3.22;;
30249;SDS011;17064;47.974;13.826;2023-04-06T13:57:38;5.45;;;2.90;;
30249;SDS011;17064;47.974;13.826;2023-04-06T14:02:39;7.18;;;3.58;;
30249;SDS011;17064;47.974;13.826;2023-04-06T14:07:40;12.05;;;3.38;;
30249;SDS011;17064;47.974;13.826;2023-04-06T14:12:41;5.43;;;3.45;;
30249;SDS011;17064;47.974;13.826;2023-04-06T14:17:43;7.33;;;3.20;;
30249;SDS011;17064;47.974;13.826;2023-04-06T14:22:44;7.50;;;3.40;;
30249;SDS011;17064;47.974;13.826;2023-04-06T14:27:46;7.18;;;3.83;;
30249;SDS011;17064;47.974;13.826;2023-04-06T14:32:47;5.68;;;3.38;;
30249;SDS011;17064;47.974;13.826;2023-04-06T14:37:47;6.80;;;3.85;;
30249;SDS011;17064;47.974;13.826;2023-04-06T14:42:48;4.75;;;3.35;;
30249;SDS011;17064;47.974;13.826;2023-04-06T14:47:50;7.07;;;3.77;;
30249;SDS011;17064;47.974;13.826;2023-04-06T14:52:51;6.43;;;3.80;;
30249;SDS011;17064;47.974;13.826;2023-04-06T14:57:52;5.35;;;3.63;;
30249;SDS011;17064;47.974;13.826;2023-04-06T15:02:52;5.57;;;4.30;;
30249;SDS011;17064;47.974;13.826;2023-04-06T15:07:53;6.75;;;5.00;;
30249;SDS011;17064;47.974;13.826;2023-04-06T15:12:54;26.65;;;12.80;;
30249;SDS011;17064;47.974;13.826;2023-04-06T15:17:55;9.15;;;4.20;;
30249;SDS011;17064;47.974;13.826;2023-04-06T15:22:56;10.63;;;6.35;;
30249;SDS011;17064;47.974;13.826;2023-04-06T15:27:56;7.60;;;4.40;;
30249;SDS011;17064;47.974;13.826;2023-04-06T15:32:58;8.13;;;3.88;;
30249;SDS011;17064;47.974;13.826;2023-04-06T15:38:00;8.48;;;4.63;;
30249;SDS011;17064;47.974;13.826;2023-04-06T15:43:02;9.27;;;3.83;;
30249;SDS011;17064;47.974;13.826;2023-04-06T15:48:03;5.70;;;4.18;;
30249;SDS011;17064;47.974;13.826;2023-04-06T15:53:04;21.40;;;7.47;;
30249;SDS011;17064;47.974;13.826;2023-04-06T15:58:05;6.75;;;4.00;;
30249;SDS011;17064;47.974;13.826;2023-04-06T16:03:06;5.13;;;3.97;;
30249;SDS011;17064;47.974;13.826;2023-04-06T16:08:07;6.63;;;4.22;;
30249;SDS011;17064;47.974;13.826;2023-04-06T16:13:08;4.25;;;3.42;;
30249;SDS011;17064;47.974;13.826;2023-04-06T16:18:08;6.55;;;3.88;;
30249;SDS011;17064;47.974;13.826;2023-04-06T16:23:09;5.70;;;3.85;;
30249;SDS011;17064;47.974;13.826;2023-04-06T16:28:11;6.65;;;4.43;;
30249;SDS011;17064;47.974;13.826;2023-04-06T16:33:11;6.40;;;3.95;;
30249;SDS011;17064;47.974;13.826;2023-04-06T16:38:13;7.68;;;4.50;;
30249;SDS011;17064;47.974;13.826;2023-04-06T16:43:14;5.95;;;3.88;;
30249;SDS011;17064;47.974;13.826;2023-04-06T16:48:15;6.47;;;4.32;;
30249;SDS011;17064;47.974;13.826;2023-04-06T16:53:15;8.57;;;4.78;;
30249;SDS011;17064;47.974;13.826;2023-04-06T16:58:16;6.15;;;4.38;;
30249;SDS011;17064;47.974;13.826;2023-04-06T17:03:17;6.63;;;4.28;;
30249;SDS011;17064;47.974;13.826;2023-04-06T17:08:17;7.65;;;4.40;;
30249;SDS011;17064;47.974;13.826;2023-04-06T17:13:18;7.32;;;3.28;;
30249;SDS011;17064;47.974;13.826;2023-04-06T17:18:19;6.75;;;3.78;;
30249;SDS011;17064;47.974;13.826;2023-04-06T17:23:19;4.47;;;3.80;;
30249;SDS011;17064;47.974;13.826;2023-04-06T17:28:20;7.53;;;4.05;;
30249;SDS011;17064;47.974;13.826;2023-04-06T17:33:21;8.40;;;4.20;;
30249;SDS011;17064;47.974;13.826;2023-04-06T17:38:22;4.75;;;3.60;;
30249;SDS011;17064;47.974;13.826;2023-04-06T17:43:23;9.18;;;4.03;;
30249;SDS011;17064;47.974;13.826;2023-04-06T17:48:24;5.80;;;3.83;;
30249;SDS011;17064;47.974;13.826;2023-04-06T17:53:25;7.60;;;4.10;;
30249;SDS011;17064;47.974;13.826;2023-04-06T17:58:29;8.10;;;3.92;;
30249;SDS011;17064;47.974;13.826;2023-04-06T18:03:30;12.32;;;4.50;;
30249;SDS011;17064;47.974;13.826;2023-04-06T18:08:31;7.00;;;3.88;;
30249;SDS011;17064;47.974;13.826;2023-04-06T18:13:32;9.68;;;4.05;;
30249;SDS011;17064;47.974;13.826;2023-04-06T18:18:32;9.13;;;4.10;;
30249;SDS011;17064;47.974;13.826;2023-04-06T18:23:33;9.90;;;4.93;;
30249;SDS011;17064;47.974;13.826;2023-04-06T18:28:36;9.68;;;5.63;;
30249;SDS011;17064;47.974;13.826;2023-04-06T18:33:36;13.93;;;5.80;;
30249;SDS011;17064;47.974;13.826;2023-04-06T18:38:41;10.73;;;5.50;;
30249;SDS011;17064;47.974;13.826;2023-04-06T18:43:43;14.02;;;6.85;;
30249;SDS011;17064;47.974;13.826;2023-04-06T18:48:43;9.27;;;5.38;;
30249;SDS011;17064;47.974;13.826;2023-04-06T18:53:44;7.18;;;5.28;;
30249;SDS011;17064;47.974;13.826;2023-04-06T18:58:45;11.73;;;6.68;;
30249;SDS011;17064;47.974;13.826;2023-04-06T19:03:47;14.02;;;6.90;;
30249;SDS011;17064;47.974;13.826;2023-04-06T19:08:48;14.77;;;7.03;;
30249;SDS011;17064;47.974;13.826;2023-04-06T19:13:49;12.07;;;7.40;;
30249;SDS011;17064;47.974;13.826;2023-04-06T19:18:50;10.88;;;5.97;;
30249;SDS011;17064;47.974;13.826;2023-04-06T19:23:51;11.82;;;5.53;;
30249;SDS011;17064;47.974;13.826;2023-04-06T19:28:55;19.08;;;7.28;;
30249;SDS011;17064;47.974;13.826;2023-04-06T19:33:56;15.07;;;6.82;;
30249;SDS011;17064;47.974;13.826;2023-04-06T19:38:57;12.43;;;6.78;;
30249;SDS011;17064;47.974;13.826;2023-04-06T19:43:58;15.55;;;6.65;;
30249;SDS011;17064;47.974;13.826;2023-04-06T19:48:59;9.90;;;5.90;;
30249;SDS011;17064;47.974;13.826;2023-04-06T19:54:00;9.38;;;5.80;;
30249;SDS011;17064;47.974;13.826;2023-04-06T19:59:02;9.55;;;6.13;;
30249;SDS011;17064;47.974;13.826;2023-04-06T20:04:03;11.40;;;6.47;;
30249;SDS011;17064;47.974;13.826;2023-04-06T20:09:03;12.40;;;5.90;;
30249;SDS011;17064;47.974;13.826;2023-04-06T20:14:06;16.80;;;7.18;;
30249;SDS011;17064;47.974;13.826;2023-04-06T20:19:06;17.50;;;6.90;;
30249;SDS011;17064;47.974;13.826;2023-04-06T20:24:07;12.93;;;6.93;;
30249;SDS011;17064;47.974;13.826;2023-04-06T20:29:08;15.75;;;7.03;;
30249;SDS011;17064;47.974;13.826;2023-04-06T20:34:09;15.68;;;7.60;;
30249;SDS011;17064;47.974;13.826;2023-04-06T20:39:09;13.43;;;6.32;;
30249;SDS011;17064;47.974;13.826;2023-04-06T20:44:10;14.93;;;6.72;;
30249;SDS011;17064;47.974;13.826;2023-04-06T20:49:11;16.55;;;6.22;;
30249;SDS011;17064;47.974;13.826;2023-04-06T20:54:12;11.07;;;6.25;;
30249;SDS011;17064;47.974;13.826;2023-04-06T20:59:12;15.13;;;7.07;;
30249;SDS011;17064;47.974;13.826;2023-04-06T21:04:13;10.38;;;5.65;;
30249;SDS011;17064;47.974;13.826;2023-04-06T21:09:14;12.77;;;6.25;;
30249;SDS011;17064;47.974;13.826;2023-04-06T21:14:15;11.07;;;6.40;;
30249;SDS011;17064;47.974;13.826;2023-04-06T21:19:16;12.70;;;6.43;;
30249;SDS011;17064;47.974;13.826;2023-04-06T21:24:17;11.52;;;5.57;;
30249;SDS011;17064;47.974;13.826;2023-04-06T21:29:17;11.23;;;6.22;;
30249;SDS011;17064;47.974;13.826;2023-04-06T21:34:18;11.60;;;6.30;;
30249;SDS011;17064;47.974;13.826;2023-04-06T21:39:19;11.20;;;6.40;;
30249;SDS011;17064;47.974;13.826;2023-04-06T21:44:20;11.90;;;5.65;;
30249;SDS011;17064;47.974;13.826;2023-04-06T21:49:21;13.40;;;6.78;;
30249;SDS011;17064;47.974;13.826;2023-04-06T21:54:22;9.93;;;5.90;;
30249;SDS011;17064;47.974;13.826;2023-04-06T21:59:22;8.48;;;6.13;;
30249;SDS011;17064;47.974;13.826;2023-04-06T22:04:23;11.02;;;7.07;;
30249;SDS011;17064;47.974;13.826;2023-04-06T22:09:24;8.68;;;5.63;;
30249;SDS011;17064;47.974;13.826;2023-04-06T22:14:25;12.45;;;6.18;;
30249;SDS011;17064;47.974;13.826;2023-04-06T22:19:25;11.05;;;6.32;;
30249;SDS011;17064;47.974;13.826;2023-04-06T22:24:26;14.63;;;6.65;;
30249;SDS011;17064;47.974;13.826;2023-04-06T22:29:27;12.73;;;6.28;;
30249;SDS011;17064;47.974;13.826;2023-04-06T22:34:27;11.60;;;6.40;;
30249;SDS011;17064;47.974;13.826;2023-04-06T22:39:28;11.20;;;5.95;;
30249;SDS011;17064;47.974;13.826;2023-04-06T22:44:29;11.57;;;6.18;;
30249;SDS011;17064;47.974;13.826;2023-04-06T22:49:30;9.48;;;5.88;;
30249;SDS011;17064;47.974;13.826;2023-04-06T22:54:31;10.68;;;6.00;;
30249;SDS011;17064;47.974;13.826;2023-04-06T22:59:31;9.95;;;6.32;;
30249;SDS011;17064;47.974;13.826;2023-04-06T23:04:32;10.15;;;6.10;;
30249;SDS011;17064;47.974;13.826;2023-04-06T23:09:33;10.50;;;5.78;;
30249;SDS011;17064;47.974;13.826;2023-04-06T23:14:33;10.50;;;6.32;;
30249;SDS011;17064;47.974;13.826;2023-04-06T23:19:34;9.57;;;5.97;;
30249;SDS011;17064;47.974;13.826;2023-04-06T23:24:35;9.52;;;6.60;;
30249;SDS011;17064;47.974;13.826;2023-04-06T23:29:36;11.40;;;6.30;;
30249;SDS011;17064;47.974;13.826;2023-04-06T23:34:36;10.27;;;6.15;;
30249;SDS011;17064;47.974;13.826;2023-04-06T23:39:37;10.45;;;6.10;;
30249;SDS011;17064;47.974;13.826;2023-04-06T23:44:38;10.73;;;6.03;;
30249;SDS011;17064;47.974;13.826;2023-04-06T23:49:39;11.43;;;6.15;;
30249;SDS011;17064;47.974;13.826;2023-04-06T23:54:40;10.60;;;6.05;;
30249;SDS011;17064;47.974;13.826;2023-04-06T23:59:40;9.40;;;5.43;;
